createdAt,value
2023-05-07T00:01:47.487Z,83.10
2023-05-07T00:03:50.484Z,83.00
2023-05-07T00:05:53.895Z,83.20
2023-05-07T00:07:57.913Z,83.30
2023-05-07T00:10:03.738Z,83.40
2023-05-07T00:12:06.798Z,83.40
2023-05-07T00:14:09.572Z,83.30
2023-05-07T00:16:12.419Z,83.60
2023-05-07T00:18:15.377Z,83.60
2023-05-07T00:20:18.183Z,83.80
2023-05-07T00:22:20.984Z,83.90
2023-05-07T00:24:24.713Z,84.00
2023-05-07T00:26:29.007Z,84.10
2023-05-07T00:28:32.445Z,84.20
2023-05-07T00:30:35.359Z,84.10
2023-05-07T00:32:38.717Z,84.30
2023-05-07T00:34:41.582Z,84.40
2023-05-07T00:36:44.436Z,84.40
2023-05-07T00:38:47.183Z,84.70
2023-05-07T00:40:50.104Z,84.90
2023-05-07T00:42:57.704Z,84.90
2023-05-07T00:45:00.776Z,84.80
2023-05-07T00:47:05.455Z,85.00
2023-05-07T00:49:09.061Z,85.00
2023-05-07T00:51:12.735Z,85.10
2023-05-07T00:53:16.026Z,85.20
2023-05-07T00:55:19.195Z,85.30
2023-05-07T00:57:23.601Z,85.40
2023-05-07T00:59:27.938Z,85.40
2023-05-07T01:01:30.856Z,85.50
2023-05-07T01:03:33.724Z,85.30
2023-05-07T01:05:37.619Z,85.10
2023-05-07T01:07:42.846Z,85.10
2023-05-07T01:09:45.720Z,85.10
2023-05-07T01:11:49.922Z,85.50
2023-05-07T01:13:53.435Z,85.60
2023-05-07T01:15:57.596Z,85.50
2023-05-07T01:18:00.652Z,85.50
2023-05-07T01:20:05.034Z,85.60
2023-05-07T01:22:11.554Z,85.60
2023-05-07T01:24:16.729Z,85.70
2023-05-07T01:26:20.597Z,85.60
2023-05-07T01:28:23.574Z,85.40
2023-05-07T01:30:26.451Z,85.40
2023-05-07T01:32:34.421Z,85.20
2023-05-07T01:34:39.229Z,85.20
2023-05-07T01:36:44.884Z,85.30
2023-05-07T01:38:47.994Z,85.50
2023-05-07T01:40:52.390Z,85.80
2023-05-07T01:42:56.705Z,86.00
2023-05-07T01:44:59.951Z,86.00
2023-05-07T01:47:04.109Z,86.10
2023-05-07T01:49:06.875Z,86.40
2023-05-07T01:51:10.932Z,86.20
2023-05-07T01:53:13.782Z,86.40
2023-05-07T01:55:16.550Z,86.50
2023-05-07T01:57:20.627Z,86.60
2023-05-07T01:59:23.413Z,86.90
2023-05-07T02:01:26.436Z,87.10
2023-05-07T02:03:29.468Z,86.90
2023-05-07T02:05:32.346Z,86.90
2023-05-07T02:07:35.069Z,86.70
2023-05-07T02:09:38.053Z,87.00
2023-05-07T02:11:40.795Z,87.10
2023-05-07T02:13:44.887Z,87.30
2023-05-07T02:15:51.468Z,87.40
2023-05-07T02:18:01.955Z,87.80
2023-05-07T02:20:05.819Z,87.70
2023-05-07T02:22:08.884Z,87.80
2023-05-07T02:24:11.648Z,87.90
2023-05-07T02:26:14.417Z,88.10
2023-05-07T02:28:17.319Z,88.30
2023-05-07T02:30:22.223Z,88.40
2023-05-07T02:32:25.113Z,88.40
2023-05-07T02:34:28.729Z,88.60
2023-05-07T02:36:31.573Z,88.70
2023-05-07T02:38:34.319Z,88.90
2023-05-07T02:40:39.744Z,88.90
2023-05-07T02:42:42.723Z,89.30
2023-05-07T02:44:45.539Z,88.70
2023-05-07T02:46:49.695Z,88.80
2023-05-07T02:48:52.507Z,88.80
2023-05-07T02:50:55.240Z,88.90
2023-05-07T02:52:58.014Z,88.70
2023-05-07T02:55:00.866Z,88.70
2023-05-07T02:57:04.179Z,88.80
2023-05-07T02:59:06.965Z,88.50
2023-05-07T03:01:10.433Z,88.10
2023-05-07T03:03:14.653Z,88.10
2023-05-07T03:05:18.001Z,87.90
2023-05-07T03:07:20.888Z,87.90
2023-05-07T03:09:23.864Z,88.20
2023-05-07T03:11:26.776Z,88.10
2023-05-07T03:13:29.517Z,88.00
2023-05-07T03:15:32.308Z,87.90
2023-05-07T03:17:35.102Z,88.10
2023-05-07T03:19:39.178Z,88.30
2023-05-07T03:21:41.974Z,89.40
2023-05-07T03:23:44.725Z,88.60
2023-05-07T03:25:47.531Z,88.70
2023-05-07T03:27:50.436Z,88.60
2023-05-07T03:29:53.200Z,88.50
2023-05-07T03:31:56.100Z,88.20
2023-05-07T03:33:59.432Z,88.40
2023-05-07T03:36:03.602Z,88.40
2023-05-07T03:38:06.577Z,88.50
2023-05-07T03:40:11.503Z,88.50
2023-05-07T03:42:14.700Z,88.30
2023-05-07T03:44:17.552Z,88.50
2023-05-07T03:46:20.467Z,88.30
2023-05-07T03:48:23.268Z,88.30
2023-05-07T03:50:26.105Z,88.50
2023-05-07T03:52:30.199Z,88.60
2023-05-07T03:54:33.063Z,88.20
2023-05-07T03:56:35.986Z,88.50
2023-05-07T03:58:38.765Z,88.70
2023-05-07T04:00:41.935Z,88.70
2023-05-07T04:02:44.944Z,88.70
2023-05-07T04:04:47.769Z,88.70
2023-05-07T04:06:51.106Z,88.80
2023-05-07T04:08:55.347Z,88.50
2023-05-07T04:10:58.247Z,88.70
2023-05-07T04:13:01.059Z,88.50
2023-05-07T04:15:03.948Z,88.60
2023-05-07T04:17:06.937Z,88.70
2023-05-07T04:19:09.686Z,88.80
2023-05-07T04:21:16.797Z,88.90
2023-05-07T04:23:19.644Z,88.80
2023-05-07T04:25:27.764Z,88.70
2023-05-07T04:27:30.691Z,88.50
2023-05-07T04:29:33.480Z,88.60
2023-05-07T04:31:36.345Z,88.70
2023-05-07T04:33:39.147Z,88.80
2023-05-07T04:35:41.929Z,88.70
2023-05-07T04:37:44.754Z,88.80
2023-05-07T04:39:47.530Z,88.70
2023-05-07T04:41:51.624Z,88.80
2023-05-07T04:43:54.351Z,88.80
2023-05-07T04:45:57.189Z,88.80
2023-05-07T04:48:00.054Z,88.90
2023-05-07T04:50:02.894Z,88.80
2023-05-07T04:52:06.262Z,89.10
2023-05-07T04:54:09.044Z,89.00
2023-05-07T04:56:11.967Z,88.90
2023-05-07T04:58:16.588Z,88.90
2023-05-07T05:00:20.594Z,88.80
2023-05-07T05:02:23.432Z,88.90
2023-05-07T05:04:26.702Z,89.00
2023-05-07T05:06:29.525Z,89.00
2023-05-07T05:08:32.477Z,89.20
2023-05-07T05:10:35.296Z,89.40
2023-05-07T05:12:38.121Z,89.50
2023-05-07T05:14:42.367Z,89.70
2023-05-07T05:16:45.162Z,89.70
2023-05-07T05:18:48.458Z,89.60
2023-05-07T05:20:51.258Z,89.60
2023-05-07T05:22:54.040Z,89.70
2023-05-07T05:24:56.902Z,90.00
2023-05-07T05:27:00.882Z,90.00
2023-05-07T05:29:03.862Z,90.00
2023-05-07T05:31:08.135Z,90.00
2023-05-07T05:33:11.140Z,90.00
2023-05-07T05:35:14.038Z,90.00
2023-05-07T05:37:16.826Z,90.20
2023-05-07T05:39:19.774Z,90.30
2023-05-07T05:41:22.663Z,90.40
2023-05-07T05:43:25.535Z,90.40
2023-05-07T05:45:28.422Z,90.50
2023-05-07T05:47:32.660Z,90.50
2023-05-07T05:49:36.098Z,90.40
2023-05-07T05:51:38.878Z,90.50
2023-05-07T05:53:41.615Z,90.70
2023-05-07T05:55:44.702Z,90.80
2023-05-07T05:57:47.733Z,90.80
2023-05-07T05:59:50.481Z,90.80
2023-05-07T06:01:53.501Z,90.70
2023-05-07T06:03:58.275Z,90.80
2023-05-07T06:06:01.965Z,90.90
2023-05-07T06:08:05.483Z,90.90
2023-05-07T06:10:09.823Z,91.00
2023-05-07T06:12:12.982Z,91.20
2023-05-07T06:14:15.757Z,91.20
2023-05-07T06:16:18.555Z,91.10
2023-05-07T06:18:21.341Z,91.30
2023-05-07T06:20:25.646Z,91.10
2023-05-07T06:22:28.506Z,91.10
2023-05-07T06:24:31.432Z,91.20
2023-05-07T06:26:34.230Z,91.20
2023-05-07T06:28:37.586Z,91.20
2023-05-07T06:30:41.302Z,91.20
2023-05-07T06:32:44.137Z,91.10
2023-05-07T06:34:46.897Z,91.20
2023-05-07T06:36:50.975Z,91.30
2023-05-07T06:38:53.733Z,91.40
2023-05-07T06:40:58.125Z,91.30
2023-05-07T06:43:00.957Z,91.30
2023-05-07T06:45:03.869Z,91.20
2023-05-07T06:47:06.893Z,91.20
2023-05-07T06:49:09.676Z,91.20
2023-05-07T06:51:12.419Z,91.10
2023-05-07T06:53:16.549Z,91.20
2023-05-07T06:55:20.304Z,91.30
2023-05-07T06:57:23.015Z,91.30
2023-05-07T06:59:26.077Z,91.30
2023-05-07T07:01:28.924Z,91.20
2023-05-07T07:03:32.137Z,91.20
2023-05-07T07:05:34.943Z,91.00
2023-05-07T07:07:37.762Z,90.90
2023-05-07T07:09:41.908Z,90.50
2023-05-07T07:11:44.712Z,90.90
2023-05-07T07:13:47.569Z,90.90
2023-05-07T07:15:50.418Z,90.80
2023-05-07T07:17:53.454Z,90.80
2023-05-07T07:19:56.339Z,90.70
2023-05-07T07:21:59.140Z,90.70
2023-05-07T07:24:01.972Z,90.80
2023-05-07T07:26:07.018Z,91.10
2023-05-07T07:28:09.858Z,90.80
2023-05-07T07:30:13.219Z,90.80
2023-05-07T07:32:16.389Z,90.70
2023-05-07T07:34:19.152Z,90.70
2023-05-07T07:36:22.082Z,90.70
2023-05-07T07:38:26.394Z,90.70
2023-05-07T07:40:29.404Z,90.20
2023-05-07T07:42:33.556Z,90.10
2023-05-07T07:44:36.356Z,90.00
2023-05-07T07:46:39.467Z,90.10
2023-05-07T07:48:42.246Z,90.00
2023-05-07T07:50:46.162Z,90.20
2023-05-07T07:52:49.896Z,90.00
2023-05-07T07:54:52.645Z,89.80
2023-05-07T07:56:55.383Z,89.70
2023-05-07T07:58:59.637Z,89.20
2023-05-07T08:01:02.428Z,89.30
2023-05-07T08:03:06.287Z,89.80
2023-05-07T08:05:10.044Z,89.40
2023-05-07T08:07:13.081Z,89.30
2023-05-07T08:09:15.894Z,89.10
2023-05-07T08:11:18.773Z,88.80
2023-05-07T08:13:21.673Z,89.00
2023-05-07T08:15:25.824Z,89.70
2023-05-07T08:17:28.684Z,89.30
2023-05-07T08:19:31.821Z,89.30
2023-05-07T08:21:34.906Z,89.40
2023-05-07T08:23:37.729Z,88.40
2023-05-07T08:25:41.115Z,88.50
2023-05-07T08:27:45.300Z,88.80
2023-05-07T08:29:49.055Z,88.60
2023-05-07T08:31:53.229Z,88.90
2023-05-07T08:33:56.034Z,88.40
2023-05-07T08:35:59.254Z,88.50
2023-05-07T08:38:02.157Z,88.40
2023-05-07T08:40:08.182Z,88.20
2023-05-07T08:42:14.792Z,88.60
2023-05-07T08:44:20.680Z,88.00
2023-05-07T08:46:24.274Z,88.20
2023-05-07T08:48:31.397Z,87.90
2023-05-07T08:50:37.317Z,87.70
2023-05-07T08:52:41.389Z,88.20
2023-05-07T08:54:45.098Z,88.10
2023-05-07T08:56:47.944Z,87.30
2023-05-07T08:58:50.901Z,87.80
2023-05-07T09:00:56.114Z,87.40
2023-05-07T09:02:58.913Z,87.30
2023-05-07T09:05:03.207Z,87.40
2023-05-07T09:07:06.803Z,87.10
2023-05-07T09:09:10.028Z,87.40
2023-05-07T09:11:13.898Z,87.20
2023-05-07T09:13:19.216Z,86.80
2023-05-07T09:15:22.759Z,86.80
2023-05-07T09:17:25.666Z,86.40
2023-05-07T09:19:29.333Z,86.60
2023-05-07T09:21:33.567Z,86.30
2023-05-07T09:23:36.403Z,85.90
2023-05-07T09:25:39.535Z,86.70
2023-05-07T09:27:44.173Z,86.90
2023-05-07T09:29:46.970Z,86.20
2023-05-07T09:31:49.936Z,85.30
2023-05-07T09:33:54.538Z,85.80
2023-05-07T09:35:57.400Z,86.30
2023-05-07T09:38:04.505Z,86.10
2023-05-07T09:40:10.302Z,85.90
2023-05-07T09:42:15.749Z,85.10
2023-05-07T09:44:19.436Z,85.00
2023-05-07T09:46:27.356Z,84.70
2023-05-07T09:48:31.677Z,84.50
2023-05-07T09:50:38.590Z,84.40
2023-05-07T09:52:43.359Z,84.20
2023-05-07T09:54:49.428Z,84.70
2023-05-07T09:56:53.844Z,84.40
2023-05-07T09:58:59.655Z,84.20
2023-05-07T10:01:04.470Z,84.90
2023-05-07T10:03:09.850Z,83.50
2023-05-07T10:05:13.183Z,84.50
2023-05-07T10:07:17.271Z,83.90
2023-05-07T10:09:20.781Z,83.90
2023-05-07T10:11:25.408Z,84.10
2023-05-07T10:13:28.896Z,83.40
2023-05-07T10:15:31.842Z,83.70
2023-05-07T10:17:36.540Z,83.60
2023-05-07T10:19:40.297Z,83.50
2023-05-07T10:21:49.131Z,83.30
2023-05-07T10:23:53.288Z,83.20
2023-05-07T10:26:00.667Z,82.90
2023-05-07T10:28:09.904Z,82.60
2023-05-07T10:30:22.923Z,82.50
2023-05-07T10:32:37.622Z,82.50
2023-05-07T10:34:45.145Z,82.50
2023-05-07T10:36:48.640Z,82.20
2023-05-07T10:38:51.903Z,81.60
2023-05-07T10:40:55.189Z,81.20
2023-05-07T10:43:00.445Z,81.30
2023-05-07T10:45:16.703Z,80.90
2023-05-07T10:47:20.191Z,80.90
2023-05-07T10:49:24.692Z,81.10
2023-05-07T10:51:27.594Z,80.50
2023-05-07T10:53:30.600Z,81.10
2023-05-07T10:55:33.410Z,81.20
2023-05-07T10:57:37.856Z,79.50
2023-05-07T10:59:43.952Z,80.60
2023-05-07T11:01:56.065Z,80.60
2023-05-07T11:04:18.420Z,81.00
2023-05-07T11:06:21.378Z,80.80
2023-05-07T11:08:24.381Z,81.30
2023-05-07T11:10:50.117Z,81.10
2023-05-07T11:12:57.653Z,80.20
2023-05-07T11:15:00.642Z,80.20
2023-05-07T11:17:06.114Z,79.80
2023-05-07T11:19:09.086Z,80.20
2023-05-07T11:21:13.593Z,79.70
2023-05-07T11:24:02.557Z,79.80
2023-05-07T11:26:06.408Z,78.70
2023-05-07T11:28:11.344Z,79.40
2023-05-07T11:30:19.479Z,78.80
2023-05-07T11:32:26.901Z,79.40
2023-05-07T11:34:29.703Z,78.80
2023-05-07T11:36:34.171Z,78.50
2023-05-07T11:38:39.629Z,77.80
2023-05-07T11:40:52.291Z,77.90
2023-05-07T11:42:55.147Z,77.70
2023-05-07T11:44:58.413Z,77.10
2023-05-07T11:47:01.517Z,76.90
2023-05-07T11:49:05.882Z,76.90
2023-05-07T11:51:13.237Z,76.70
2023-05-07T11:53:18.085Z,77.60
2023-05-07T11:55:21.335Z,77.10
2023-05-07T11:57:24.839Z,76.50
2023-05-07T11:59:27.687Z,77.10
2023-05-07T12:01:30.747Z,77.50
2023-05-07T12:03:36.419Z,77.90
2023-05-07T12:05:42.922Z,77.40
2023-05-07T12:07:45.908Z,76.60
2023-05-07T12:09:49.353Z,77.10
2023-05-07T12:11:54.056Z,75.90
2023-05-07T12:13:59.430Z,75.40
2023-05-07T12:16:04.315Z,75.40
2023-05-07T12:18:07.485Z,75.80
2023-05-07T12:20:11.573Z,75.30
2023-05-07T12:22:15.942Z,75.60
2023-05-07T12:24:21.888Z,75.50
2023-05-07T12:26:25.769Z,74.40
2023-05-07T12:28:28.733Z,74.70
2023-05-07T12:30:31.639Z,74.60
2023-05-07T12:32:37.453Z,74.30
2023-05-07T12:34:45.425Z,74.40
2023-05-07T12:36:50.431Z,74.10
2023-05-07T12:38:56.892Z,73.20
2023-05-07T12:40:59.715Z,72.70
2023-05-07T12:43:02.526Z,73.40
2023-05-07T12:45:11.278Z,72.60
2023-05-07T12:47:14.603Z,71.90
2023-05-07T12:49:19.269Z,71.90
2023-05-07T12:51:22.087Z,73.20
2023-05-07T12:53:27.004Z,72.00
2023-05-07T12:55:34.815Z,72.40
2023-05-07T12:57:41.867Z,71.90
2023-05-07T12:59:44.735Z,71.90
2023-05-07T13:01:51.138Z,71.20
2023-05-07T13:03:54.161Z,70.40
2023-05-07T13:05:58.692Z,70.80
2023-05-07T13:08:02.067Z,69.50
2023-05-07T13:10:05.182Z,69.40
2023-05-07T13:12:09.409Z,69.70
2023-05-07T13:14:13.336Z,69.30
2023-05-07T13:16:16.637Z,69.10
2023-05-07T13:18:19.838Z,69.30
2023-05-07T13:20:23.241Z,69.40
2023-05-07T13:22:26.489Z,69.00
2023-05-07T13:24:29.486Z,69.60
2023-05-07T13:26:34.256Z,68.50
2023-05-07T13:28:38.670Z,68.10
2023-05-07T13:30:42.790Z,67.60
2023-05-07T13:32:46.625Z,67.60
2023-05-07T13:34:49.427Z,67.80
2023-05-07T13:36:52.381Z,68.00
2023-05-07T13:38:55.173Z,68.30
2023-05-07T13:40:57.979Z,66.90
2023-05-07T13:43:02.954Z,67.00
2023-05-07T13:45:08.383Z,67.30
2023-05-07T13:47:11.191Z,66.50
2023-05-07T13:49:14.392Z,65.80
2023-05-07T13:51:17.909Z,65.80
2023-05-07T13:53:20.690Z,65.00
2023-05-07T13:55:24.544Z,65.80
2023-05-07T13:57:27.381Z,65.70
2023-05-07T13:59:30.329Z,65.40
2023-05-07T14:01:34.926Z,64.90
2023-05-07T14:03:38.855Z,65.70
2023-05-07T14:05:43.028Z,64.40
2023-05-07T14:07:46.060Z,65.30
2023-05-07T14:09:48.856Z,64.00
2023-05-07T14:11:52.411Z,63.60
2023-05-07T14:13:55.457Z,62.70
2023-05-07T14:15:58.564Z,63.60
2023-05-07T14:18:02.794Z,63.70
2023-05-07T14:20:08.421Z,62.00
2023-05-07T14:22:11.557Z,62.10
2023-05-07T14:24:15.826Z,63.00
2023-05-07T14:26:24.346Z,59.90
2023-05-07T14:28:27.236Z,61.40
2023-05-07T14:30:30.018Z,62.00
2023-05-07T14:32:32.814Z,57.30
2023-05-07T14:34:37.043Z,56.40
2023-05-07T14:36:39.944Z,54.50
2023-05-07T14:38:42.753Z,50.50
2023-05-07T14:40:46.689Z,51.40
2023-05-07T14:42:49.637Z,50.60
2023-05-07T14:44:53.924Z,46.60
2023-05-07T14:46:57.367Z,45.80
2023-05-07T14:49:00.268Z,49.00
2023-05-07T14:51:04.599Z,45.30
2023-05-07T14:53:07.397Z,45.40
2023-05-07T14:55:11.013Z,42.50
2023-05-07T14:57:17.158Z,42.70
2023-05-07T14:59:22.087Z,40.80
2023-05-07T15:01:24.918Z,42.20
2023-05-07T15:03:27.894Z,42.40
2023-05-07T15:05:30.755Z,39.60
2023-05-07T15:07:35.334Z,38.60
2023-05-07T15:09:38.099Z,36.90
2023-05-07T15:11:40.986Z,37.00
2023-05-07T15:13:44.473Z,38.70
2023-05-07T15:15:47.458Z,38.60
2023-05-07T15:17:50.352Z,36.90
2023-05-07T15:19:54.460Z,37.50
2023-05-07T15:21:57.750Z,38.00
2023-05-07T15:24:02.091Z,37.60
2023-05-07T15:26:05.006Z,36.00
2023-05-07T15:28:07.894Z,37.70
2023-05-07T15:30:12.057Z,36.60
2023-05-07T15:32:14.786Z,37.40
2023-05-07T15:34:17.669Z,39.70
2023-05-07T15:36:21.568Z,39.30
2023-05-07T15:38:24.327Z,39.10
2023-05-07T15:40:29.415Z,40.10
2023-05-07T15:42:32.292Z,41.70
2023-05-07T15:44:35.979Z,43.30
2023-05-07T15:46:38.952Z,44.10
2023-05-07T15:48:41.754Z,44.60
2023-05-07T15:50:44.636Z,45.40
2023-05-07T15:52:47.518Z,45.80
2023-05-07T15:54:50.435Z,46.20
2023-05-07T15:56:54.572Z,46.40
2023-05-07T15:58:58.265Z,46.70
2023-05-07T16:01:01.804Z,46.90
2023-05-07T16:03:05.238Z,47.50
2023-05-07T16:05:10.938Z,47.60
2023-05-07T16:07:14.158Z,47.80
2023-05-07T16:09:17.731Z,48.00
2023-05-07T16:11:20.538Z,47.60
2023-05-07T16:13:25.135Z,46.20
2023-05-07T16:15:28.119Z,43.20
2023-05-07T16:17:30.981Z,41.10
2023-05-07T16:19:33.821Z,40.40
2023-05-07T16:21:36.651Z,39.50
2023-05-07T16:23:39.970Z,39.10
2023-05-07T16:25:42.781Z,39.00
2023-05-07T16:27:45.588Z,38.20
2023-05-07T16:29:49.885Z,38.40
2023-05-07T16:31:54.874Z,39.40
2023-05-07T16:33:57.791Z,39.00
2023-05-07T16:36:00.830Z,39.40
2023-05-07T16:38:09.685Z,39.10
2023-05-07T16:40:13.397Z,38.90
2023-05-07T16:42:16.301Z,39.50
2023-05-07T16:44:19.425Z,39.60
2023-05-07T16:46:23.648Z,39.90
2023-05-07T16:48:27.381Z,39.70
2023-05-07T16:50:30.679Z,39.10
2023-05-07T16:52:33.892Z,39.60
2023-05-07T16:54:36.959Z,40.90
2023-05-07T16:56:39.959Z,42.70
2023-05-07T16:58:43.068Z,44.10
2023-05-07T17:02:53.232Z,46.80
2023-05-07T17:04:56.335Z,48.10
2023-05-07T17:06:59.143Z,48.80
2023-05-07T17:09:02.117Z,49.40
2023-05-07T17:11:05.043Z,49.80
2023-05-07T17:13:08.167Z,50.20
2023-05-07T17:15:12.334Z,50.50
2023-05-07T17:17:15.714Z,50.50
2023-05-07T17:19:19.866Z,50.80
2023-05-07T17:21:22.724Z,51.10
2023-05-07T17:23:25.707Z,51.40
2023-05-07T17:25:28.688Z,52.00
2023-05-07T17:27:32.350Z,52.30
2023-05-07T17:29:35.387Z,52.40
2023-05-07T17:31:38.159Z,53.00
2023-05-07T17:33:41.214Z,53.30
2023-05-07T17:35:45.395Z,53.70
2023-05-07T17:37:52.473Z,54.00
2023-05-07T17:39:56.175Z,54.50
2023-05-07T17:41:58.985Z,54.70
2023-05-07T17:44:01.819Z,54.90
2023-05-07T17:46:04.655Z,55.40
2023-05-07T17:48:07.893Z,55.70
2023-05-07T17:50:12.214Z,56.30
2023-05-07T17:52:16.569Z,56.10
2023-05-07T17:54:19.352Z,56.00
2023-05-07T17:56:22.770Z,56.00
2023-05-07T17:58:26.658Z,56.40
2023-05-07T18:00:29.698Z,56.80
2023-05-07T18:02:32.649Z,56.70
2023-05-07T18:04:35.503Z,56.80
2023-05-07T18:06:38.932Z,57.10
2023-05-07T18:08:43.391Z,57.40
2023-05-07T18:10:46.270Z,58.00
2023-05-07T18:12:49.283Z,57.90
2023-05-07T18:14:53.512Z,58.30
2023-05-07T18:16:56.357Z,58.50
2023-05-07T18:18:59.287Z,58.70
2023-05-07T18:21:02.271Z,58.90
2023-05-07T18:23:05.414Z,59.90
2023-05-07T18:25:10.288Z,59.80
2023-05-07T18:27:13.968Z,60.50
2023-05-07T18:29:16.782Z,60.50
2023-05-07T18:31:20.710Z,60.70
2023-05-07T18:33:23.747Z,60.60
2023-05-07T18:35:26.583Z,60.60
2023-05-07T18:37:29.432Z,61.00
2023-05-07T18:39:32.381Z,61.70
2023-05-07T18:41:36.926Z,62.30
2023-05-07T18:43:39.866Z,62.50
2023-05-07T18:45:42.708Z,62.60
2023-05-07T18:47:45.755Z,63.00
2023-05-07T18:49:48.579Z,63.10
2023-05-07T18:51:53.187Z,63.10
2023-05-07T18:53:55.982Z,63.10
2023-05-07T18:56:00.324Z,63.90
2023-05-07T18:58:04.450Z,64.10
2023-05-07T19:00:09.303Z,64.30
2023-05-07T19:02:13.933Z,64.50
2023-05-07T19:04:18.117Z,64.10
2023-05-07T19:06:21.252Z,64.60
2023-05-07T19:08:24.079Z,64.60
2023-05-07T19:10:26.882Z,64.60
2023-05-07T19:12:29.646Z,64.80
2023-05-07T19:14:33.885Z,65.30
2023-05-07T19:16:36.724Z,65.70
2023-05-07T19:18:40.004Z,65.50
2023-05-07T19:20:42.888Z,65.80
2023-05-07T19:22:45.654Z,65.70
2023-05-07T19:24:48.445Z,66.60
2023-05-07T19:26:51.241Z,66.00
2023-05-07T19:29:07.198Z,66.30
2023-05-07T19:31:21.600Z,66.20
2023-05-07T19:33:24.758Z,66.80
2023-05-07T19:35:27.756Z,66.70
2023-05-07T19:37:30.697Z,66.60
2023-05-07T19:39:33.653Z,66.90
2023-05-07T19:41:36.473Z,66.80
2023-05-07T19:43:39.561Z,66.90
2023-05-07T19:45:43.524Z,67.00
2023-05-07T19:47:48.799Z,67.30
2023-05-07T19:49:51.674Z,67.20
2023-05-07T19:51:54.486Z,67.60
2023-05-07T19:53:57.438Z,67.50
2023-05-07T19:56:05.492Z,67.90
2023-05-07T19:58:08.417Z,68.20
2023-05-07T20:00:12.676Z,68.60
2023-05-07T20:02:16.760Z,68.70
2023-05-07T20:04:20.986Z,68.80
2023-05-07T20:06:24.203Z,68.70
2023-05-07T20:08:28.444Z,68.70
2023-05-07T20:10:31.287Z,68.80
2023-05-07T20:12:34.090Z,68.70
2023-05-07T20:14:37.092Z,69.60
2023-05-07T20:16:40.019Z,69.30
2023-05-07T20:18:43.029Z,69.50
2023-05-07T20:20:48.078Z,69.40
2023-05-07T20:22:50.903Z,69.60
2023-05-07T20:24:53.704Z,69.50
2023-05-07T20:26:56.508Z,69.60
2023-05-07T20:29:00.517Z,69.70
2023-05-07T20:31:03.448Z,69.80
2023-05-07T20:33:07.862Z,69.80
2023-05-07T20:35:11.282Z,70.00
2023-05-07T20:37:15.966Z,70.10
2023-05-07T20:39:18.990Z,70.40
2023-05-07T20:41:24.645Z,70.40
2023-05-07T20:43:27.796Z,70.30
2023-05-07T20:45:30.751Z,70.50
2023-05-07T20:47:33.935Z,70.80
2023-05-07T20:49:37.127Z,70.90
2023-05-07T20:51:39.914Z,70.80
2023-05-07T20:53:47.313Z,71.10
2023-05-07T20:55:50.794Z,71.30
2023-05-07T20:57:53.657Z,71.40
2023-05-07T20:59:56.811Z,71.70
2023-05-07T21:01:59.537Z,71.60
2023-05-07T21:04:02.350Z,72.10
2023-05-07T21:06:05.465Z,71.90
2023-05-07T21:08:08.301Z,72.00
2023-05-07T21:10:12.622Z,72.00
2023-05-07T21:12:15.815Z,72.20
2023-05-07T21:14:18.609Z,72.40
2023-05-07T21:16:21.559Z,72.50
2023-05-07T21:18:26.580Z,72.60
2023-05-07T21:20:30.484Z,72.70
2023-05-07T21:22:33.603Z,72.50
2023-05-07T21:24:36.390Z,72.80
2023-05-07T21:26:40.673Z,72.80
2023-05-07T21:28:43.471Z,73.10
2023-05-07T21:30:46.347Z,73.70
2023-05-07T21:32:49.650Z,73.30
2023-05-07T21:34:52.561Z,73.60
2023-05-07T21:36:55.347Z,74.20
2023-05-07T21:38:58.146Z,74.00
2023-05-07T21:41:00.920Z,73.90
2023-05-07T21:43:05.082Z,74.00
2023-05-07T21:45:08.436Z,73.70
2023-05-07T21:47:11.174Z,74.00
2023-05-07T21:49:13.996Z,74.30
2023-05-07T21:51:17.249Z,74.60
2023-05-07T21:53:20.003Z,74.50
2023-05-07T21:55:23.080Z,74.40
2023-05-07T21:57:26.160Z,74.20
2023-05-07T21:59:30.537Z,74.00
2023-05-07T22:01:33.621Z,74.10
2023-05-07T22:03:36.624Z,74.20
2023-05-07T22:05:39.500Z,74.40
2023-05-07T22:07:42.313Z,74.60
2023-05-07T22:09:45.302Z,74.60
2023-05-07T22:11:48.140Z,75.40
2023-05-07T22:13:51.131Z,74.80
2023-05-07T22:15:58.186Z,74.80
2023-05-07T22:18:01.627Z,74.70
2023-05-07T22:20:04.748Z,74.70
2023-05-07T22:22:07.821Z,74.90
2023-05-07T22:24:10.860Z,75.20
2023-05-07T22:26:14.301Z,75.20
2023-05-07T22:28:17.137Z,75.20
2023-05-07T22:30:20.008Z,75.20
2023-05-07T22:32:24.176Z,75.10
2023-05-07T22:34:26.979Z,75.30
2023-05-07T22:36:30.214Z,75.60
2023-05-07T22:38:33.761Z,75.50
2023-05-07T22:40:36.570Z,75.70
2023-05-07T22:42:39.490Z,76.00
2023-05-07T22:44:42.341Z,75.80
2023-05-07T22:46:45.131Z,76.10
2023-05-07T22:48:49.240Z,76.10
2023-05-07T22:50:52.022Z,76.10
2023-05-07T22:52:54.916Z,76.00
2023-05-07T22:54:57.692Z,75.90
2023-05-07T22:57:00.596Z,75.80
2023-05-07T22:59:03.413Z,76.10
2023-05-07T23:01:12.736Z,76.00
2023-05-07T23:03:15.649Z,76.30
2023-05-07T23:05:20.470Z,76.20
2023-05-07T23:07:23.304Z,76.40
2023-05-07T23:09:26.224Z,76.40
2023-05-07T23:11:29.422Z,76.40
2023-05-07T23:13:32.267Z,76.50
2023-05-07T23:15:35.078Z,76.30
2023-05-07T23:17:37.861Z,76.20
2023-05-07T23:19:40.965Z,76.30
2023-05-07T23:21:45.083Z,76.50
2023-05-07T23:23:48.122Z,76.50
2023-05-07T23:25:52.614Z,76.50
2023-05-07T23:27:55.414Z,76.50
2023-05-07T23:29:58.195Z,76.40
2023-05-07T23:32:01.770Z,76.50
2023-05-07T23:34:04.683Z,76.60
2023-05-07T23:36:08.505Z,76.50
2023-05-07T23:38:12.587Z,76.60
2023-05-07T23:40:15.345Z,76.70
2023-05-07T23:42:18.088Z,76.70
2023-05-07T23:44:20.886Z,76.60
2023-05-07T23:46:24.737Z,76.70
2023-05-07T23:48:27.769Z,76.80
2023-05-07T23:50:30.494Z,76.80
2023-05-07T23:52:33.266Z,76.90
2023-05-07T23:54:37.391Z,77.10
2023-05-07T23:56:40.156Z,77.00
2023-05-07T23:58:42.963Z,77.10
